sensor_id;sensor_type;location;lat;lon;timestamp;pressure;altitude;pressure_sealevel;temperature;humidity
29549;BME280;16487;53.094;8.800;2022-11-20T00:01:28;101418.34;;;1.17;100.00
29549;BME280;16487;53.094;8.800;2022-11-20T00:03:57;101414.63;;;1.29;100.00
29549;BME280;16487;53.094;8.800;2022-11-20T00:06:26;101416.78;;;1.16;100.00
29549;BME280;16487;53.094;8.800;2022-11-20T00:08:54;101417.75;;;1.27;100.00
29549;BME280;16487;53.094;8.800;2022-11-20T00:11:23;101424.56;;;1.14;100.00
29549;BME280;16487;53.094;8.800;2022-11-20T00:13:53;101416.09;;;1.23;100.00
29549;BME280;16487;53.094;8.800;2022-11-20T00:16:23;101422.31;;;1.19;100.00
29549;BME280;16487;53.094;8.800;2022-11-20T00:18:51;101417.91;;;1.15;100.00
29549;BME280;16487;53.094;8.800;2022-11-20T00:21:20;101414.03;;;1.16;100.00
29549;BME280;16487;53.094;8.800;2022-11-20T00:23:48;101425.56;;;1.25;100.00
29549;BME280;16487;53.094;8.800;2022-11-20T00:26:19;101426.88;;;1.12;100.00
29549;BME280;16487;53.094;8.800;2022-11-20T00:28:49;101427.94;;;1.27;100.00
29549;BME280;16487;53.094;8.800;2022-11-20T00:31:17;101431.41;;;1.24;100.00
29549;BME280;16487;53.094;8.800;2022-11-20T00:33:46;101431.78;;;1.22;100.00
29549;BME280;16487;53.094;8.800;2022-11-20T00:36:15;101431.78;;;1.22;100.00
29549;BME280;16487;53.094;8.800;2022-11-20T00:38:43;101431.72;;;1.18;100.00
29549;BME280;16487;53.094;8.800;2022-11-20T00:41:13;101430.59;;;1.23;100.00
29549;BME280;16487;53.094;8.800;2022-11-20T00:43:41;101438.00;;;1.19;100.00
29549;BME280;16487;53.094;8.800;2022-11-20T00:46:10;101438.66;;;1.12;100.00
29549;BME280;16487;53.094;8.800;2022-11-20T00:48:37;101442.47;;;1.08;100.00
29549;BME280;16487;53.094;8.800;2022-11-20T00:51:06;101443.06;;;0.98;100.00
29549;BME280;16487;53.094;8.800;2022-11-20T00:53:34;101453.88;;;0.91;100.00
29549;BME280;16487;53.094;8.800;2022-11-20T00:56:03;101442.91;;;0.91;100.00
29549;BME280;16487;53.094;8.800;2022-11-20T00:58:32;101446.81;;;0.90;100.00
29549;BME280;16487;53.094;8.800;2022-11-20T01:01:00;101445.94;;;0.86;100.00
29549;BME280;16487;53.094;8.800;2022-11-20T01:03:30;101456.91;;;0.86;100.00
29549;BME280;16487;53.094;8.800;2022-11-20T01:06:00;101460.41;;;1.02;100.00
29549;BME280;16487;53.094;8.800;2022-11-20T01:08:30;101462.84;;;1.07;100.00
29549;BME280;16487;53.094;8.800;2022-11-20T01:10:59;101456.34;;;0.96;100.00
29549;BME280;16487;53.094;8.800;2022-11-20T01:13:27;101466.31;;;1.04;100.00
29549;BME280;16487;53.094;8.800;2022-11-20T01:15:54;101478.44;;;1.03;100.00
29549;BME280;16487;53.094;8.800;2022-11-20T01:18:21;101479.41;;;1.10;100.00
29549;BME280;16487;53.094;8.800;2022-11-20T01:20:48;101475.34;;;1.04;100.00
29549;BME280;16487;53.094;8.800;2022-11-20T01:23:15;101479.75;;;1.09;100.00
29549;BME280;16487;53.094;8.800;2022-11-20T01:25:44;101491.94;;;1.11;100.00
29549;BME280;16487;53.094;8.800;2022-11-20T01:28:11;101493.19;;;1.14;100.00
29549;BME280;16487;53.094;8.800;2022-11-20T01:30:39;101485.50;;;1.04;100.00
29549;BME280;16487;53.094;8.800;2022-11-20T01:33:06;101483.34;;;1.13;100.00
29549;BME280;16487;53.094;8.800;2022-11-20T01:35:33;101477.09;;;1.12;100.00
29549;BME280;16487;53.094;8.800;2022-11-20T01:38:00;101481.91;;;1.19;100.00
29549;BME280;16487;53.094;8.800;2022-11-20T01:40:28;101477.41;;;1.11;100.00
29549;BME280;16487;53.094;8.800;2022-11-20T01:43:09;101479.53;;;1.17;100.00
29549;BME280;16487;53.094;8.800;2022-11-20T01:46:00;101470.72;;;1.08;100.00
29549;BME280;16487;53.094;8.800;2022-11-20T01:48:33;101464.44;;;1.08;100.00
29549;BME280;16487;53.094;8.800;2022-11-20T01:51:04;101463.38;;;1.12;100.00
29549;BME280;16487;53.094;8.800;2022-11-20T01:53:35;101458.72;;;1.16;100.00
29549;BME280;16487;53.094;8.800;2022-11-20T01:56:06;101463.84;;;1.18;100.00
29549;BME280;16487;53.094;8.800;2022-11-20T01:58:37;101462.13;;;1.10;100.00
29549;BME280;16487;53.094;8.800;2022-11-20T02:01:06;101448.84;;;1.12;100.00
29549;BME280;16487;53.094;8.800;2022-11-20T02:03:34;101446.91;;;1.12;100.00
29549;BME280;16487;53.094;8.800;2022-11-20T02:06:05;101450.41;;;1.13;100.00
29549;BME280;16487;53.094;8.800;2022-11-20T02:08:36;101440.31;;;1.17;100.00
29549;BME280;16487;53.094;8.800;2022-11-20T02:11:04;101437.84;;;1.12;100.00
29549;BME280;16487;53.094;8.800;2022-11-20T02:13:32;101427.75;;;1.16;100.00
29549;BME280;16487;53.094;8.800;2022-11-20T02:16:01;101415.09;;;1.11;100.00
29549;BME280;16487;53.094;8.800;2022-11-20T02:18:30;101405.78;;;1.16;100.00
29549;BME280;16487;53.094;8.800;2022-11-20T02:21:02;101397.06;;;1.10;100.00
29549;BME280;16487;53.094;8.800;2022-11-20T02:23:38;101399.13;;;1.17;100.00
29549;BME280;16487;53.094;8.800;2022-11-20T02:26:10;101394.69;;;1.09;100.00
29549;BME280;16487;53.094;8.800;2022-11-20T02:28:39;101397.97;;;1.18;100.00
29549;BME280;16487;53.094;8.800;2022-11-20T02:31:06;101384.53;;;1.13;100.00
29549;BME280;16487;53.094;8.800;2022-11-20T02:33:33;101379.91;;;1.17;100.00
29549;BME280;16487;53.094;8.800;2022-11-20T02:36:01;101376.31;;;1.13;100.00
29549;BME280;16487;53.094;8.800;2022-11-20T02:38:28;101367.22;;;1.09;100.00
29549;BME280;16487;53.094;8.800;2022-11-20T02:40:55;101369.59;;;1.10;100.00
29549;BME280;16487;53.094;8.800;2022-11-20T02:43:24;101373.69;;;1.20;100.00
29549;BME280;16487;53.094;8.800;2022-11-20T02:45:51;101364.63;;;1.16;100.00
29549;BME280;16487;53.094;8.800;2022-11-20T02:48:18;101365.03;;;1.18;100.00
29549;BME280;16487;53.094;8.800;2022-11-20T02:50:46;101350.84;;;1.12;100.00
29549;BME280;16487;53.094;8.800;2022-11-20T02:53:13;101358.81;;;1.21;100.00
29549;BME280;16487;53.094;8.800;2022-11-20T02:55:40;101352.53;;;1.21;100.00
29549;BME280;16487;53.094;8.800;2022-11-20T02:58:08;101339.94;;;1.19;100.00
29549;BME280;16487;53.094;8.800;2022-11-20T03:00:36;101345.22;;;1.28;100.00
29549;BME280;16487;53.094;8.800;2022-11-20T03:03:03;101333.00;;;1.26;100.00
29549;BME280;16487;53.094;8.800;2022-11-20T03:05:31;101337.00;;;1.28;100.00
29549;BME280;16487;53.094;8.800;2022-11-20T03:07:58;101336.31;;;1.35;100.00
29549;BME280;16487;53.094;8.800;2022-11-20T03:10:25;101322.53;;;1.31;100.00
29549;BME280;16487;53.094;8.800;2022-11-20T03:12:53;101314.34;;;1.35;100.00
29549;BME280;16487;53.094;8.800;2022-11-20T03:15:21;101312.75;;;1.34;100.00
29549;BME280;16487;53.094;8.800;2022-11-20T03:17:53;101312.69;;;1.30;100.00
29549;BME280;16487;53.094;8.800;2022-11-20T03:20:20;101306.06;;;1.31;100.00
29549;BME280;16487;53.094;8.800;2022-11-20T03:22:47;101297.00;;;1.31;100.00
29549;BME280;16487;53.094;8.800;2022-11-20T03:25:15;101299.44;;;1.36;100.00
29549;BME280;16487;53.094;8.800;2022-11-20T03:27:42;101286.84;;;1.31;100.00
29549;BME280;16487;53.094;8.800;2022-11-20T03:30:10;101283.09;;;1.43;100.00
29549;BME280;16487;53.094;8.800;2022-11-20T03:32:37;101279.84;;;1.37;100.00
29549;BME280;16487;53.094;8.800;2022-11-20T03:35:07;101283.34;;;1.34;100.00
29549;BME280;16487;53.094;8.800;2022-11-20T03:37:34;101274.47;;;1.44;100.00
29549;BME280;16487;53.094;8.800;2022-11-20T03:40:02;101277.97;;;1.41;100.00
29549;BME280;16487;53.094;8.800;2022-11-20T03:42:30;101271.31;;;1.42;100.00
29549;BME280;16487;53.094;8.800;2022-11-20T03:44:57;101271.63;;;1.37;100.00
29549;BME280;16487;53.094;8.800;2022-11-20T03:47:24;101263.91;;;1.46;100.00
29549;BME280;16487;53.094;8.800;2022-11-20T03:49:51;101255.69;;;1.46;100.00
29549;BME280;16487;53.094;8.800;2022-11-20T03:52:20;101249.34;;;1.42;100.00
29549;BME280;16487;53.094;8.800;2022-11-20T03:54:47;101236.03;;;1.44;100.00
29549;BME280;16487;53.094;8.800;2022-11-20T03:57:15;101239.91;;;1.40;100.00
29549;BME280;16487;53.094;8.800;2022-11-20T03:59:42;101242.28;;;1.41;100.00
29549;BME280;16487;53.094;8.800;2022-11-20T04:02:09;101238.00;;;1.44;100.00
29549;BME280;16487;53.094;8.800;2022-11-20T04:04:37;101233.22;;;1.41;100.00
29549;BME280;16487;53.094;8.800;2022-11-20T04:07:04;101221.97;;;1.49;100.00
29549;BME280;16487;53.094;8.800;2022-11-20T04:09:33;101227.53;;;1.53;100.00
29549;BME280;16487;53.094;8.800;2022-11-20T04:12:00;101227.47;;;1.49;100.00
29549;BME280;16487;53.094;8.800;2022-11-20T04:14:27;101225.91;;;1.48;100.00
29549;BME280;16487;53.094;8.800;2022-11-20T04:16:54;101219.56;;;1.44;100.00
29549;BME280;16487;53.094;8.800;2022-11-20T04:19:22;101215.66;;;1.45;100.00
29549;BME280;16487;53.094;8.800;2022-11-20T04:21:49;101210.91;;;1.42;100.00
29549;BME280;16487;53.094;8.800;2022-11-20T04:24:17;101210.28;;;1.52;100.00
29549;BME280;16487;53.094;8.800;2022-11-20T04:26:45;101207.47;;;1.49;100.00
29549;BME280;16487;53.094;8.800;2022-11-20T04:29:13;101202.09;;;1.56;100.00
29549;BME280;16487;53.094;8.800;2022-11-20T04:31:40;101202.38;;;1.47;100.00
29549;BME280;16487;53.094;8.800;2022-11-20T04:34:07;101204.75;;;1.49;100.00
29549;BME280;16487;53.094;8.800;2022-11-20T04:36:35;101194.53;;;1.49;100.00
29549;BME280;16487;53.094;8.800;2022-11-20T04:39:04;101202.38;;;1.47;100.00
29549;BME280;16487;53.094;8.800;2022-11-20T04:41:34;101205.50;;;1.49;100.00
29549;BME280;16487;53.094;8.800;2022-11-20T04:44:04;101198.44;;;1.48;100.00
29549;BME280;16487;53.094;8.800;2022-11-20T04:46:34;101192.53;;;1.46;100.00
29549;BME280;16487;53.094;8.800;2022-11-20T04:49:02;101189.34;;;1.44;100.00
29549;BME280;16487;53.094;8.800;2022-11-20T04:51:30;101185.84;;;1.44;100.00
29549;BME280;16487;53.094;8.800;2022-11-20T04:53:57;101184.25;;;1.43;100.00
29549;BME280;16487;53.094;8.800;2022-11-20T04:56:24;101191.38;;;1.47;100.00
29549;BME280;16487;53.094;8.800;2022-11-20T04:58:52;101176.91;;;1.50;100.00
29549;BME280;16487;53.094;8.800;2022-11-20T05:01:22;101169.41;;;1.47;100.00
29549;BME280;16487;53.094;8.800;2022-11-20T05:03:50;101184.28;;;1.46;100.00
29549;BME280;16487;53.094;8.800;2022-11-20T05:06:19;101186.59;;;1.44;100.00
29549;BME280;16487;53.094;8.800;2022-11-20T05:08:47;101182.63;;;1.38;100.00
29549;BME280;16487;53.094;8.800;2022-11-20T05:11:16;101178.78;;;1.46;100.00
29549;BME280;16487;53.094;8.800;2022-11-20T05:13:44;101165.50;;;1.48;100.00
29549;BME280;16487;53.094;8.800;2022-11-20T05:16:13;101167.91;;;1.53;100.00
29549;BME280;16487;53.094;8.800;2022-11-20T05:18:43;101170.97;;;1.48;100.00
29549;BME280;16487;53.094;8.800;2022-11-20T05:21:11;101164.22;;;1.42;100.00
29549;BME280;16487;53.094;8.800;2022-11-20T05:23:39;101162.78;;;1.52;100.00
29549;BME280;16487;53.094;8.800;2022-11-20T05:26:08;101160.00;;;1.48;100.00
29549;BME280;16487;53.094;8.800;2022-11-20T05:28:35;101165.16;;;1.53;100.00
29549;BME280;16487;53.094;8.800;2022-11-20T05:31:06;101159.25;;;1.51;100.00
29549;BME280;16487;53.094;8.800;2022-11-20T05:33:35;101156.03;;;1.46;100.00
29549;BME280;16487;53.094;8.800;2022-11-20T05:36:04;101148.91;;;1.41;100.00
29549;BME280;16487;53.094;8.800;2022-11-20T05:38:32;101151.28;;;1.43;100.00
29549;BME280;16487;53.094;8.800;2022-11-20T05:41:05;101154.41;;;1.41;100.00
29549;BME280;16487;53.094;8.800;2022-11-20T05:43:34;101151.38;;;1.50;100.00
29549;BME280;16487;53.094;8.800;2022-11-20T05:46:02;101144.69;;;1.47;100.00
29549;BME280;16487;53.094;8.800;2022-11-20T05:48:30;101155.34;;;1.52;100.00
29549;BME280;16487;53.094;8.800;2022-11-20T05:50:57;101149.88;;;1.52;100.00
29549;BME280;16487;53.094;8.800;2022-11-20T05:53:27;101150.22;;;1.51;100.00
29549;BME280;16487;53.094;8.800;2022-11-20T05:55:58;101146.59;;;1.43;100.00
29549;BME280;16487;53.094;8.800;2022-11-20T05:58:25;101149.75;;;1.45;100.00
29549;BME280;16487;53.094;8.800;2022-11-20T06:00:52;101138.03;;;1.48;100.00
29549;BME280;16487;53.094;8.800;2022-11-20T06:03:20;101137.59;;;1.46;100.00
29549;BME280;16487;53.094;8.800;2022-11-20T06:05:47;101134.81;;;1.43;100.00
29549;BME280;16487;53.094;8.800;2022-11-20T06:08:15;101138.78;;;1.45;100.00
29549;BME280;16487;53.094;8.800;2022-11-20T06:10:44;101134.53;;;1.51;100.00
29549;BME280;16487;53.094;8.800;2022-11-20T06:13:11;101137.28;;;1.51;100.00
29549;BME280;16487;53.094;8.800;2022-11-20T06:15:38;101127.00;;;1.45;100.00
29549;BME280;16487;53.094;8.800;2022-11-20T06:18:05;101116.19;;;1.59;100.00
29549;BME280;16487;53.094;8.800;2022-11-20T06:20:33;101113.81;;;1.57;100.00
29549;BME280;16487;53.094;8.800;2022-11-20T06:23:08;101113.69;;;1.47;100.00
29549;BME280;16487;53.094;8.800;2022-11-20T06:25:37;101112.84;;;1.43;100.00
29549;BME280;16487;53.094;8.800;2022-11-20T06:28:06;101118.00;;;1.48;100.00
29549;BME280;16487;53.094;8.800;2022-11-20T06:30:33;101121.50;;;1.45;100.00
29549;BME280;16487;53.094;8.800;2022-11-20T06:33:00;101120.81;;;1.51;100.00
29549;BME280;16487;53.094;8.800;2022-11-20T06:35:27;101110.56;;;1.48;100.00
29549;BME280;16487;53.094;8.800;2022-11-20T06:37:55;101118.38;;;1.46;100.00
29549;BME280;16487;53.094;8.800;2022-11-20T06:40:23;101125.72;;;1.39;100.00
29549;BME280;16487;53.094;8.800;2022-11-20T06:42:50;101129.38;;;1.46;100.00
29549;BME280;16487;53.094;8.800;2022-11-20T06:45:18;101123.88;;;1.46;100.00
29549;BME280;16487;53.094;8.800;2022-11-20T06:47:46;101121.78;;;1.36;100.00
29549;BME280;16487;53.094;8.800;2022-11-20T06:50:13;101117.81;;;1.34;100.00
29549;BME280;16487;53.094;8.800;2022-11-20T06:52:40;101112.28;;;1.30;100.00
29549;BME280;16487;53.094;8.800;2022-11-20T06:55:09;101107.41;;;1.46;100.00
29549;BME280;16487;53.094;8.800;2022-11-20T06:57:37;101105.25;;;1.33;100.00
29549;BME280;16487;53.094;8.800;2022-11-20T07:00:05;101107.59;;;1.31;100.00
29549;BME280;16487;53.094;8.800;2022-11-20T07:02:34;101099.34;;;1.31;100.00
29549;BME280;16487;53.094;8.800;2022-11-20T07:05:01;101082.81;;;1.27;100.00
29549;BME280;16487;53.094;8.800;2022-11-20T07:07:28;101092.97;;;1.23;100.00
29549;BME280;16487;53.094;8.800;2022-11-20T07:09:56;101095.31;;;1.21;100.00
29549;BME280;16487;53.094;8.800;2022-11-20T07:12:23;101104.59;;;1.13;100.00
29549;BME280;16487;53.094;8.800;2022-11-20T07:14:50;101119.59;;;1.19;100.00
29549;BME280;16487;53.094;8.800;2022-11-20T07:17:18;101115.03;;;1.30;100.00
29549;BME280;16487;53.094;8.800;2022-11-20T07:19:46;101120.72;;;1.18;100.00
29549;BME280;16487;53.094;8.800;2022-11-20T07:22:14;101119.97;;;1.17;100.00
29549;BME280;16487;53.094;8.800;2022-11-20T07:24:41;101128.91;;;1.14;100.00
29549;BME280;16487;53.094;8.800;2022-11-20T07:27:12;101127.72;;;1.12;100.00
29549;BME280;16487;53.094;8.800;2022-11-20T07:29:39;101127.66;;;1.08;100.00
29549;BME280;16487;53.094;8.800;2022-11-20T07:32:06;101122.81;;;0.98;100.00
29549;BME280;16487;53.094;8.800;2022-11-20T07:34:34;101132.19;;;0.97;100.00
29549;BME280;16487;53.094;8.800;2022-11-20T07:37:02;101125.06;;;0.93;100.00
29549;BME280;16487;53.094;8.800;2022-11-20T07:39:36;101114.09;;;0.93;100.00
29549;BME280;16487;53.094;8.800;2022-11-20T07:42:03;101117.59;;;0.90;100.00
29549;BME280;16487;53.094;8.800;2022-11-20T07:44:30;101127.75;;;0.89;100.00
29549;BME280;16487;53.094;8.800;2022-11-20T07:46:58;101132.56;;;0.96;100.00
29549;BME280;16487;53.094;8.800;2022-11-20T07:49:26;101125.81;;;1.16;100.00
29549;BME280;16487;53.094;8.800;2022-11-20T07:51:53;101128.81;;;1.07;100.00
29549;BME280;16487;53.094;8.800;2022-11-20T07:54:22;101127.50;;;1.24;100.00
29549;BME280;16487;53.094;8.800;2022-11-20T07:56:50;101127.84;;;1.49;100.00
29549;BME280;16487;53.094;8.800;2022-11-20T07:59:17;101130.50;;;1.42;100.00
29549;BME280;16487;53.094;8.800;2022-11-20T08:01:44;101126.19;;;1.44;100.00
29549;BME280;16487;53.094;8.800;2022-11-20T08:04:12;101126.72;;;1.53;100.00
29549;BME280;16487;53.094;8.800;2022-11-20T08:06:39;101128.47;;;1.39;100.00
29549;BME280;16487;53.094;8.800;2022-11-20T08:09:06;101128.16;;;1.44;100.00
29549;BME280;16487;53.094;8.800;2022-11-20T08:11:35;101130.88;;;1.40;100.00
29549;BME280;16487;53.094;8.800;2022-11-20T08:14:02;101136.66;;;1.35;100.00
29549;BME280;16487;53.094;8.800;2022-11-20T08:16:29;101132.75;;;1.36;100.00
29549;BME280;16487;53.094;8.800;2022-11-20T08:18:56;101128.53;;;1.42;100.00
29549;BME280;16487;53.094;8.800;2022-11-20T08:21:24;101134.84;;;1.46;100.00
29549;BME280;16487;53.094;8.800;2022-11-20T08:23:51;101134.06;;;1.46;100.00
29549;BME280;16487;53.094;8.800;2022-11-20T08:26:18;101118.06;;;1.51;100.00
29549;BME280;16487;53.094;8.800;2022-11-20T08:28:49;101125.53;;;1.54;100.00
29549;BME280;16487;53.094;8.800;2022-11-20T08:31:16;101117.84;;;1.67;100.00
29549;BME280;16487;53.094;8.800;2022-11-20T08:33:43;101118.19;;;1.62;100.00
29549;BME280;16487;53.094;8.800;2022-11-20T08:36:10;101125.22;;;1.92;100.00
29549;BME280;16487;53.094;8.800;2022-11-20T08:38:38;101126.09;;;2.00;100.00
29549;BME280;16487;53.094;8.800;2022-11-20T08:41:05;101116.78;;;2.11;100.00
29549;BME280;16487;53.094;8.800;2022-11-20T08:43:32;101121.88;;;2.06;100.00
29549;BME280;16487;53.094;8.800;2022-11-20T08:46:01;101121.41;;;2.00;100.00
29549;BME280;16487;53.094;8.800;2022-11-20T08:48:28;101130.00;;;1.95;100.00
29549;BME280;16487;53.094;8.800;2022-11-20T08:50:58;101117.91;;;2.03;100.00
29549;BME280;16487;53.094;8.800;2022-11-20T08:53:25;101114.47;;;2.13;100.00
29549;BME280;16487;53.094;8.800;2022-11-20T08:55:52;101115.22;;;2.10;100.00
29549;BME280;16487;53.094;8.800;2022-11-20T08:58:20;101119.41;;;1.97;100.00
29549;BME280;16487;53.094;8.800;2022-11-20T09:00:47;101117.34;;;1.91;100.00
29549;BME280;16487;53.094;8.800;2022-11-20T09:03:16;101111.28;;;2.11;100.00
29549;BME280;16487;53.094;8.800;2022-11-20T09:05:43;101105.84;;;2.15;100.00
29549;BME280;16487;53.094;8.800;2022-11-20T09:08:11;101106.72;;;2.22;100.00
29549;BME280;16487;53.094;8.800;2022-11-20T09:10:38;101112.78;;;2.39;100.00
29549;BME280;16487;53.094;8.800;2022-11-20T09:13:05;101109.91;;;2.28;100.00
29549;BME280;16487;53.094;8.800;2022-11-20T09:15:33;101109.84;;;2.21;100.00
29549;BME280;16487;53.094;8.800;2022-11-20T09:18:02;101114.63;;;2.27;100.00
29549;BME280;16487;53.094;8.800;2022-11-20T09:20:31;101107.06;;;2.17;100.00
29549;BME280;16487;53.094;8.800;2022-11-20T09:22:59;101109.88;;;2.24;100.00
29549;BME280;16487;53.094;8.800;2022-11-20T09:25:26;101107.88;;;2.21;100.00
29549;BME280;16487;53.094;8.800;2022-11-20T09:27:57;101108.72;;;1.92;100.00
29549;BME280;16487;53.094;8.800;2022-11-20T09:30:25;101103.25;;;1.92;100.00
29549;BME280;16487;53.094;8.800;2022-11-20T09:32:53;101095.16;;;2.06;100.00
29549;BME280;16487;53.094;8.800;2022-11-20T09:35:20;101094.34;;;2.02;100.00
29549;BME280;16487;53.094;8.800;2022-11-20T09:37:49;101098.59;;;1.96;100.00
29549;BME280;16487;53.094;8.800;2022-11-20T09:40:20;101097.09;;;2.02;100.00
29549;BME280;16487;53.094;8.800;2022-11-20T09:42:51;101089.22;;;2.04;100.00
29549;BME280;16487;53.094;8.800;2022-11-20T09:45:27;101096.25;;;1.98;100.00
29549;BME280;16487;53.094;8.800;2022-11-20T09:48:20;101087.66;;;2.03;100.00
29549;BME280;16487;53.094;8.800;2022-11-20T09:50:57;101089.09;;;1.90;100.00
29549;BME280;16487;53.094;8.800;2022-11-20T09:53:34;101086.09;;;2.02;100.00
29549;BME280;16487;53.094;8.800;2022-11-20T09:56:08;101093.84;;;1.93;100.00
29549;BME280;16487;53.094;8.800;2022-11-20T09:58:40;101081.69;;;1.94;100.00
29549;BME280;16487;53.094;8.800;2022-11-20T10:01:12;101087.50;;;1.89;100.00
29549;BME280;16487;53.094;8.800;2022-11-20T10:03:50;101090.59;;;1.84;100.00
29549;BME280;16487;53.094;8.800;2022-11-20T10:06:24;101082.31;;;1.81;100.00
29549;BME280;16487;53.094;8.800;2022-11-20T10:09:03;101079.59;;;1.84;100.00
29549;BME280;16487;53.094;8.800;2022-11-20T10:11:40;101089.75;;;1.80;100.00
29549;BME280;16487;53.094;8.800;2022-11-20T10:14:20;101086.06;;;1.66;100.00
29549;BME280;16487;53.094;8.800;2022-11-20T10:16:57;101088.88;;;1.69;100.00
29549;BME280;16487;53.094;8.800;2022-11-20T10:19:43;101073.28;;;1.80;100.00
29549;BME280;16487;53.094;8.800;2022-11-20T10:22:22;101081.78;;;1.68;100.00
29549;BME280;16487;53.094;8.800;2022-11-20T10:24:56;101081.78;;;1.68;100.00
29549;BME280;16487;53.094;8.800;2022-11-20T10:27:43;101084.09;;;1.63;100.00
29549;BME280;16487;53.094;8.800;2022-11-20T10:30:16;101077.66;;;1.52;100.00
29549;BME280;16487;53.094;8.800;2022-11-20T10:32:47;101081.22;;;1.52;100.00
29549;BME280;16487;53.094;8.800;2022-11-20T10:35:20;101080.97;;;1.64;100.00
29549;BME280;16487;53.094;8.800;2022-11-20T10:37:51;101080.25;;;1.71;100.00
29549;BME280;16487;53.094;8.800;2022-11-20T10:40:29;101081.44;;;1.73;100.00
29549;BME280;16487;53.094;8.800;2022-11-20T10:43:01;101081.84;;;1.75;100.00
29549;BME280;16487;53.094;8.800;2022-11-20T10:45:45;101082.44;;;1.58;100.00
29549;BME280;16487;53.094;8.800;2022-11-20T10:48:20;101083.19;;;1.55;100.00
29549;BME280;16487;53.094;8.800;2022-11-20T10:51:06;101081.34;;;1.66;100.00
29549;BME280;16487;53.094;8.800;2022-11-20T10:53:45;101087.22;;;1.65;100.00
29549;BME280;16487;53.094;8.800;2022-11-20T10:56:20;101088.03;;;1.65;100.00
29549;BME280;16487;53.094;8.800;2022-11-20T10:59:02;101092.75;;;1.68;100.00
29549;BME280;16487;53.094;8.800;2022-11-20T11:01:30;101092.84;;;1.75;100.00
29549;BME280;16487;53.094;8.800;2022-11-20T11:03:58;101092.03;;;1.71;100.00
29549;BME280;16487;53.094;8.800;2022-11-20T11:06:31;101097.91;;;1.73;100.00
29549;BME280;16487;53.094;8.800;2022-11-20T11:09:09;101099.22;;;1.83;100.00
29549;BME280;16487;53.094;8.800;2022-11-20T11:11:40;101090.59;;;1.84;100.00
29549;BME280;16487;53.094;8.800;2022-11-20T11:14:10;101092.59;;;1.87;100.00
29549;BME280;16487;53.094;8.800;2022-11-20T11:16:49;101094.03;;;1.74;100.00
29549;BME280;16487;53.094;8.800;2022-11-20T11:19:17;101098.75;;;1.77;100.00
29549;BME280;16487;53.094;8.800;2022-11-20T11:21:46;101100.03;;;1.83;100.00
29549;BME280;16487;53.094;8.800;2022-11-20T11:24:22;101096.09;;;1.84;100.00
29549;BME280;16487;53.094;8.800;2022-11-20T11:27:14;101093.28;;;2.14;100.00
29549;BME280;16487;53.094;8.800;2022-11-20T11:29:44;101095.09;;;2.40;100.00
29549;BME280;16487;53.094;8.800;2022-11-20T11:32:14;101095.22;;;2.54;100.00
29549;BME280;16487;53.094;8.800;2022-11-20T11:34:41;101092.94;;;2.63;100.00
29549;BME280;16487;53.094;8.800;2022-11-20T11:37:13;101081.16;;;2.66;100.00
29549;BME280;16487;53.094;8.800;2022-11-20T11:39:42;101082.22;;;2.51;100.00
29549;BME280;16487;53.094;8.800;2022-11-20T11:42:15;101078.53;;;2.80;100.00
29549;BME280;16487;53.094;8.800;2022-11-20T11:44:45;101069.94;;;2.88;100.00
29549;BME280;16487;53.094;8.800;2022-11-20T11:47:21;101074.16;;;2.72;100.00
29549;BME280;16487;53.094;8.800;2022-11-20T11:50:01;101066.13;;;2.53;100.00
29549;BME280;16487;53.094;8.800;2022-11-20T11:52:31;101067.03;;;2.71;100.00
29549;BME280;16487;53.094;8.800;2022-11-20T11:55:04;101063.13;;;2.68;100.00
29549;BME280;16487;53.094;8.800;2022-11-20T11:57:42;101049.81;;;3.49;100.00
29549;BME280;16487;53.094;8.800;2022-11-20T12:00:12;101052.31;;;3.93;100.00
29549;BME280;16487;53.094;8.800;2022-11-20T12:02:54;101048.75;;;3.96;100.00
29549;BME280;16487;53.094;8.800;2022-11-20T12:05:26;101037.75;;;3.99;100.00
29549;BME280;16487;53.094;8.800;2022-11-20T12:07:58;101034.81;;;3.43;100.00
29549;BME280;16487;53.094;8.800;2022-11-20T12:10:38;101026.09;;;3.27;100.00
29549;BME280;16487;53.094;8.800;2022-11-20T12:13:18;101021.34;;;3.24;100.00
29549;BME280;16487;53.094;8.800;2022-11-20T12:15:48;101013.94;;;3.38;100.00
29549;BME280;16487;53.094;8.800;2022-11-20T12:18:17;101007.66;;;3.45;100.00
29549;BME280;16487;53.094;8.800;2022-11-20T12:20:51;101009.09;;;3.11;100.00
29549;BME280;16487;53.094;8.800;2022-11-20T12:23:27;101015.34;;;3.01;100.00
29549;BME280;16487;53.094;8.800;2022-11-20T12:26:00;101001.13;;;2.88;100.00
29549;BME280;16487;53.094;8.800;2022-11-20T12:28:42;101005.00;;;2.80;100.00
29549;BME280;16487;53.094;8.800;2022-11-20T12:31:26;100994.00;;;2.80;100.00
29549;BME280;16487;53.094;8.800;2022-11-20T12:34:12;101002.56;;;2.65;100.00
29549;BME280;16487;53.094;8.800;2022-11-20T12:36:49;101000.84;;;2.46;100.00
29549;BME280;16487;53.094;8.800;2022-11-20T12:39:31;100994.97;;;2.48;100.00
29549;BME280;16487;53.094;8.800;2022-11-20T12:45:10;100997.88;;;2.72;100.00
29549;BME280;16487;53.094;8.800;2022-11-20T12:47:57;100997.66;;;2.37;100.00
29549;BME280;16487;53.094;8.800;2022-11-20T12:50:33;101001.72;;;2.57;100.00
29549;BME280;16487;53.094;8.800;2022-11-20T12:53:29;100999.44;;;2.70;100.00
29549;BME280;16487;53.094;8.800;2022-11-20T12:56:08;100996.19;;;2.54;100.00
29549;BME280;16487;53.094;8.800;2022-11-20T12:58:47;100990.03;;;2.74;100.00
29549;BME280;16487;53.094;8.800;2022-11-20T13:01:24;100992.59;;;2.50;100.00
29549;BME280;16487;53.094;8.800;2022-11-20T13:03:58;100991.50;;;2.58;100.00
29549;BME280;16487;53.094;8.800;2022-11-20T13:06:37;100997.72;;;2.48;100.00
29549;BME280;16487;53.094;8.800;2022-11-20T13:09:09;100996.81;;;2.33;100.00